sensor_id;sensor_type;location;lat;lon;timestamp;P1;durP1;ratioP1;P2;durP2;ratioP2
11665;SDS011;5889;51.350;6.708;2022-09-11T00:00:44;29.90;;;18.40;;
11665;SDS011;5889;51.350;6.708;2022-09-11T00:03:12;26.00;;;18.07;;
11665;SDS011;5889;51.350;6.708;2022-09-11T00:05:39;30.07;;;18.73;;
11665;SDS011;5889;51.350;6.708;2022-09-11T00:08:08;27.63;;;19.17;;
11665;SDS011;5889;51.350;6.708;2022-09-11T00:10:36;29.77;;;18.87;;
11665;SDS011;5889;51.350;6.708;2022-09-11T00:13:04;28.63;;;18.63;;
11665;SDS011;5889;51.350;6.708;2022-09-11T00:15:34;27.83;;;17.77;;
11665;SDS011;5889;51.350;6.708;2022-09-11T00:18:02;33.57;;;20.17;;
11665;SDS011;5889;51.350;6.708;2022-09-11T00:20:29;33.60;;;21.50;;
11665;SDS011;5889;51.350;6.708;2022-09-11T00:22:57;38.03;;;20.33;;
11665;SDS011;5889;51.350;6.708;2022-09-11T00:25:27;33.47;;;20.40;;
11665;SDS011;5889;51.350;6.708;2022-09-11T00:27:54;34.67;;;21.07;;
11665;SDS011;5889;51.350;6.708;2022-09-11T00:30:21;35.33;;;20.07;;
11665;SDS011;5889;51.350;6.708;2022-09-11T00:32:48;37.27;;;20.93;;
11665;SDS011;5889;51.350;6.708;2022-09-11T00:35:15;35.23;;;20.87;;
11665;SDS011;5889;51.350;6.708;2022-09-11T00:37:41;33.77;;;21.20;;
11665;SDS011;5889;51.350;6.708;2022-09-11T00:40:08;39.43;;;21.60;;
11665;SDS011;5889;51.350;6.708;2022-09-11T00:42:37;37.57;;;23.50;;
11665;SDS011;5889;51.350;6.708;2022-09-11T00:45:04;35.90;;;21.63;;
11665;SDS011;5889;51.350;6.708;2022-09-11T00:47:33;44.83;;;22.47;;
11665;SDS011;5889;51.350;6.708;2022-09-11T00:50:05;40.27;;;22.50;;
11665;SDS011;5889;51.350;6.708;2022-09-11T00:52:35;39.17;;;22.87;;
11665;SDS011;5889;51.350;6.708;2022-09-11T00:55:06;42.13;;;22.70;;
11665;SDS011;5889;51.350;6.708;2022-09-11T00:57:39;41.13;;;22.90;;
11665;SDS011;5889;51.350;6.708;2022-09-11T01:00:09;45.20;;;25.30;;
11665;SDS011;5889;51.350;6.708;2022-09-11T01:02:37;48.87;;;28.63;;
11665;SDS011;5889;51.350;6.708;2022-09-11T01:05:07;47.20;;;27.90;;
11665;SDS011;5889;51.350;6.708;2022-09-11T01:07:35;50.87;;;29.10;;
11665;SDS011;5889;51.350;6.708;2022-09-11T01:10:02;50.23;;;27.13;;
11665;SDS011;5889;51.350;6.708;2022-09-11T01:12:32;48.63;;;27.20;;
11665;SDS011;5889;51.350;6.708;2022-09-11T01:15:08;50.13;;;27.03;;
11665;SDS011;5889;51.350;6.708;2022-09-11T01:17:41;48.10;;;25.93;;
11665;SDS011;5889;51.350;6.708;2022-09-11T01:20:24;43.07;;;25.60;;
11665;SDS011;5889;51.350;6.708;2022-09-11T01:23:18;47.20;;;26.13;;
11665;SDS011;5889;51.350;6.708;2022-09-11T01:26:15;47.43;;;25.47;;
11665;SDS011;5889;51.350;6.708;2022-09-11T01:29:01;46.13;;;26.20;;
11665;SDS011;5889;51.350;6.708;2022-09-11T01:31:35;49.70;;;27.53;;
11665;SDS011;5889;51.350;6.708;2022-09-11T01:34:11;52.37;;;28.00;;
11665;SDS011;5889;51.350;6.708;2022-09-11T01:36:45;51.27;;;27.70;;
11665;SDS011;5889;51.350;6.708;2022-09-11T01:39:18;53.30;;;28.73;;
11665;SDS011;5889;51.350;6.708;2022-09-11T01:41:49;52.97;;;30.10;;
11665;SDS011;5889;51.350;6.708;2022-09-11T01:44:25;56.30;;;30.53;;
11665;SDS011;5889;51.350;6.708;2022-09-11T01:46:55;54.80;;;29.83;;
11665;SDS011;5889;51.350;6.708;2022-09-11T01:49:24;61.07;;;33.07;;
11665;SDS011;5889;51.350;6.708;2022-09-11T01:51:57;55.40;;;31.57;;
11665;SDS011;5889;51.350;6.708;2022-09-11T01:54:28;60.03;;;30.20;;
11665;SDS011;5889;51.350;6.708;2022-09-11T01:56:59;57.40;;;33.73;;
11665;SDS011;5889;51.350;6.708;2022-09-11T01:59:34;56.17;;;30.73;;
11665;SDS011;5889;51.350;6.708;2022-09-11T02:02:07;59.57;;;33.40;;
11665;SDS011;5889;51.350;6.708;2022-09-11T02:04:37;55.63;;;30.47;;
11665;SDS011;5889;51.350;6.708;2022-09-11T02:07:09;61.67;;;32.53;;
11665;SDS011;5889;51.350;6.708;2022-09-11T02:09:40;62.37;;;32.20;;
11665;SDS011;5889;51.350;6.708;2022-09-11T02:12:11;65.97;;;32.33;;
11665;SDS011;5889;51.350;6.708;2022-09-11T02:14:42;60.70;;;31.60;;
11665;SDS011;5889;51.350;6.708;2022-09-11T02:17:14;58.57;;;30.80;;
11665;SDS011;5889;51.350;6.708;2022-09-11T02:19:48;66.10;;;32.20;;
11665;SDS011;5889;51.350;6.708;2022-09-11T02:22:16;72.17;;;31.97;;
11665;SDS011;5889;51.350;6.708;2022-09-11T02:24:42;58.60;;;32.00;;
11665;SDS011;5889;51.350;6.708;2022-09-11T02:27:11;57.17;;;29.77;;
11665;SDS011;5889;51.350;6.708;2022-09-11T02:29:42;56.73;;;30.43;;
11665;SDS011;5889;51.350;6.708;2022-09-11T02:32:08;60.10;;;29.90;;
11665;SDS011;5889;51.350;6.708;2022-09-11T02:34:36;62.00;;;30.77;;
11665;SDS011;5889;51.350;6.708;2022-09-11T02:37:07;61.00;;;31.27;;
11665;SDS011;5889;51.350;6.708;2022-09-11T02:39:51;63.97;;;31.43;;
11665;SDS011;5889;51.350;6.708;2022-09-11T02:42:45;67.03;;;33.60;;
11665;SDS011;5889;51.350;6.708;2022-09-11T02:45:23;71.57;;;35.07;;
11665;SDS011;5889;51.350;6.708;2022-09-11T02:48:01;63.87;;;34.30;;
11665;SDS011;5889;51.350;6.708;2022-09-11T02:50:39;75.87;;;35.17;;
11665;SDS011;5889;51.350;6.708;2022-09-11T02:53:09;78.20;;;37.27;;
11665;SDS011;5889;51.350;6.708;2022-09-11T02:55:42;69.77;;;34.73;;
11665;SDS011;5889;51.350;6.708;2022-09-11T02:58:18;100.73;;;43.93;;
11665;SDS011;5889;51.350;6.708;2022-09-11T03:00:52;112.07;;;44.63;;
11665;SDS011;5889;51.350;6.708;2022-09-11T03:03:23;110.13;;;43.37;;
11665;SDS011;5889;51.350;6.708;2022-09-11T03:05:49;113.43;;;47.43;;
11665;SDS011;5889;51.350;6.708;2022-09-11T03:08:16;108.07;;;43.70;;
11665;SDS011;5889;51.350;6.708;2022-09-11T03:10:44;120.23;;;45.87;;
11665;SDS011;5889;51.350;6.708;2022-09-11T03:13:14;114.43;;;45.90;;
11665;SDS011;5889;51.350;6.708;2022-09-11T03:15:41;132.60;;;50.50;;
11665;SDS011;5889;51.350;6.708;2022-09-11T03:18:09;131.90;;;49.10;;
11665;SDS011;5889;51.350;6.708;2022-09-11T03:20:42;139.90;;;49.10;;
11665;SDS011;5889;51.350;6.708;2022-09-11T03:23:09;181.83;;;53.73;;
11665;SDS011;5889;51.350;6.708;2022-09-11T03:25:36;158.07;;;53.03;;
11665;SDS011;5889;51.350;6.708;2022-09-11T03:28:02;174.60;;;52.80;;
11665;SDS011;5889;51.350;6.708;2022-09-11T03:30:29;180.50;;;56.53;;
11665;SDS011;5889;51.350;6.708;2022-09-11T03:32:57;198.03;;;56.37;;
11665;SDS011;5889;51.350;6.708;2022-09-11T03:35:26;279.70;;;60.47;;
11665;SDS011;5889;51.350;6.708;2022-09-11T03:37:53;275.43;;;62.17;;
11665;SDS011;5889;51.350;6.708;2022-09-11T03:40:21;301.83;;;62.47;;
11665;SDS011;5889;51.350;6.708;2022-09-11T03:42:48;258.10;;;58.73;;
11665;SDS011;5889;51.350;6.708;2022-09-11T03:45:15;334.10;;;61.27;;
11665;SDS011;5889;51.350;6.708;2022-09-11T03:47:41;333.80;;;64.77;;
11665;SDS011;5889;51.350;6.708;2022-09-11T03:50:08;445.03;;;66.27;;
11665;SDS011;5889;51.350;6.708;2022-09-11T03:52:37;381.97;;;62.07;;
11665;SDS011;5889;51.350;6.708;2022-09-11T03:55:04;431.27;;;64.63;;
11665;SDS011;5889;51.350;6.708;2022-09-11T03:57:31;475.43;;;68.27;;
11665;SDS011;5889;51.350;6.708;2022-09-11T03:59:58;362.57;;;63.50;;
11665;SDS011;5889;51.350;6.708;2022-09-11T04:02:26;364.40;;;61.93;;
11665;SDS011;5889;51.350;6.708;2022-09-11T04:04:53;418.17;;;59.00;;
11665;SDS011;5889;51.350;6.708;2022-09-11T04:07:20;353.90;;;59.80;;
11665;SDS011;5889;51.350;6.708;2022-09-11T04:09:48;288.77;;;59.90;;
11665;SDS011;5889;51.350;6.708;2022-09-11T04:12:15;310.80;;;63.63;;
11665;SDS011;5889;51.350;6.708;2022-09-11T04:14:42;268.70;;;60.80;;
11665;SDS011;5889;51.350;6.708;2022-09-11T04:17:09;302.13;;;59.37;;
11665;SDS011;5889;51.350;6.708;2022-09-11T04:19:36;275.40;;;57.67;;
11665;SDS011;5889;51.350;6.708;2022-09-11T04:22:03;240.90;;;57.33;;
11665;SDS011;5889;51.350;6.708;2022-09-11T04:24:29;287.10;;;57.23;;
11665;SDS011;5889;51.350;6.708;2022-09-11T04:26:58;263.47;;;56.27;;
11665;SDS011;5889;51.350;6.708;2022-09-11T04:29:25;266.00;;;55.10;;
11665;SDS011;5889;51.350;6.708;2022-09-11T04:31:52;331.80;;;54.50;;
11665;SDS011;5889;51.350;6.708;2022-09-11T04:34:18;227.43;;;51.33;;
11665;SDS011;5889;51.350;6.708;2022-09-11T04:36:45;224.93;;;54.03;;
11665;SDS011;5889;51.350;6.708;2022-09-11T04:39:12;243.27;;;52.73;;
11665;SDS011;5889;51.350;6.708;2022-09-11T04:41:39;273.90;;;52.23;;
11665;SDS011;5889;51.350;6.708;2022-09-11T04:44:07;308.47;;;54.43;;
11665;SDS011;5889;51.350;6.708;2022-09-11T04:46:34;266.90;;;54.00;;
11665;SDS011;5889;51.350;6.708;2022-09-11T04:49:00;282.13;;;54.67;;
11665;SDS011;5889;51.350;6.708;2022-09-11T04:51:27;328.60;;;52.97;;
11665;SDS011;5889;51.350;6.708;2022-09-11T04:53:56;246.00;;;52.50;;
11665;SDS011;5889;51.350;6.708;2022-09-11T04:56:24;221.50;;;53.07;;
11665;SDS011;5889;51.350;6.708;2022-09-11T04:58:53;358.13;;;54.37;;
11665;SDS011;5889;51.350;6.708;2022-09-11T05:01:23;253.93;;;54.17;;
11665;SDS011;5889;51.350;6.708;2022-09-11T05:03:50;309.23;;;55.07;;
11665;SDS011;5889;51.350;6.708;2022-09-11T05:06:17;220.10;;;54.63;;
11665;SDS011;5889;51.350;6.708;2022-09-11T05:08:44;210.37;;;53.10;;
11665;SDS011;5889;51.350;6.708;2022-09-11T05:11:12;228.87;;;54.23;;
11665;SDS011;5889;51.350;6.708;2022-09-11T05:13:39;237.97;;;55.67;;
11665;SDS011;5889;51.350;6.708;2022-09-11T05:16:07;242.07;;;54.80;;
11665;SDS011;5889;51.350;6.708;2022-09-11T05:18:37;249.00;;;52.67;;
11665;SDS011;5889;51.350;6.708;2022-09-11T05:21:05;209.17;;;54.13;;
11665;SDS011;5889;51.350;6.708;2022-09-11T05:23:34;223.07;;;54.87;;
11665;SDS011;5889;51.350;6.708;2022-09-11T05:26:02;260.50;;;58.43;;
11665;SDS011;5889;51.350;6.708;2022-09-11T05:28:30;317.77;;;57.63;;
11665;SDS011;5889;51.350;6.708;2022-09-11T05:30:57;298.63;;;57.67;;
11665;SDS011;5889;51.350;6.708;2022-09-11T05:33:26;253.67;;;57.97;;
11665;SDS011;5889;51.350;6.708;2022-09-11T05:36:01;344.83;;;61.67;;
11665;SDS011;5889;51.350;6.708;2022-09-11T05:38:29;244.23;;;57.80;;
11665;SDS011;5889;51.350;6.708;2022-09-11T05:40:56;331.43;;;65.87;;
11665;SDS011;5889;51.350;6.708;2022-09-11T05:43:23;243.63;;;59.33;;
11665;SDS011;5889;51.350;6.708;2022-09-11T05:45:52;229.50;;;57.17;;
11665;SDS011;5889;51.350;6.708;2022-09-11T05:48:20;249.50;;;56.73;;
11665;SDS011;5889;51.350;6.708;2022-09-11T05:50:50;254.93;;;60.27;;
11665;SDS011;5889;51.350;6.708;2022-09-11T05:53:19;300.90;;;59.27;;
11665;SDS011;5889;51.350;6.708;2022-09-11T05:55:46;303.00;;;61.60;;
11665;SDS011;5889;51.350;6.708;2022-09-11T05:58:12;230.57;;;56.67;;
11665;SDS011;5889;51.350;6.708;2022-09-11T06:00:41;244.20;;;58.10;;
11665;SDS011;5889;51.350;6.708;2022-09-11T06:03:08;218.20;;;56.50;;
11665;SDS011;5889;51.350;6.708;2022-09-11T06:05:36;231.97;;;60.13;;
11665;SDS011;5889;51.350;6.708;2022-09-11T06:08:02;224.77;;;58.90;;
11665;SDS011;5889;51.350;6.708;2022-09-11T06:10:30;246.27;;;58.90;;
11665;SDS011;5889;51.350;6.708;2022-09-11T06:12:57;226.10;;;56.43;;
11665;SDS011;5889;51.350;6.708;2022-09-11T06:15:24;181.10;;;52.10;;
11665;SDS011;5889;51.350;6.708;2022-09-11T06:17:51;156.87;;;49.30;;
11665;SDS011;5889;51.350;6.708;2022-09-11T06:20:17;145.73;;;46.27;;
11665;SDS011;5889;51.350;6.708;2022-09-11T06:22:44;147.87;;;47.43;;
11665;SDS011;5889;51.350;6.708;2022-09-11T06:25:11;184.83;;;51.33;;
11665;SDS011;5889;51.350;6.708;2022-09-11T06:27:39;169.77;;;49.77;;
11665;SDS011;5889;51.350;6.708;2022-09-11T06:30:06;184.43;;;50.57;;
11665;SDS011;5889;51.350;6.708;2022-09-11T06:32:33;195.43;;;50.93;;
11665;SDS011;5889;51.350;6.708;2022-09-11T06:35:00;191.03;;;53.00;;
11665;SDS011;5889;51.350;6.708;2022-09-11T06:37:27;196.57;;;54.03;;
11665;SDS011;5889;51.350;6.708;2022-09-11T06:39:54;205.67;;;55.23;;
11665;SDS011;5889;51.350;6.708;2022-09-11T06:42:20;175.67;;;51.87;;
11665;SDS011;5889;51.350;6.708;2022-09-11T06:44:49;175.47;;;52.07;;
11665;SDS011;5889;51.350;6.708;2022-09-11T06:47:16;187.83;;;50.23;;
11665;SDS011;5889;51.350;6.708;2022-09-11T06:49:42;249.80;;;60.93;;
11665;SDS011;5889;51.350;6.708;2022-09-11T06:52:09;297.47;;;66.63;;
11665;SDS011;5889;51.350;6.708;2022-09-11T06:54:36;316.67;;;70.73;;
11665;SDS011;5889;51.350;6.708;2022-09-11T06:57:03;327.23;;;71.93;;
11665;SDS011;5889;51.350;6.708;2022-09-11T06:59:30;340.50;;;75.30;;
11665;SDS011;5889;51.350;6.708;2022-09-11T07:01:58;301.17;;;69.73;;
11665;SDS011;5889;51.350;6.708;2022-09-11T07:04:24;301.50;;;67.53;;
11665;SDS011;5889;51.350;6.708;2022-09-11T07:06:52;278.90;;;67.57;;
11665;SDS011;5889;51.350;6.708;2022-09-11T07:09:19;279.20;;;65.80;;
11665;SDS011;5889;51.350;6.708;2022-09-11T07:11:46;285.40;;;65.70;;
11665;SDS011;5889;51.350;6.708;2022-09-11T07:14:12;268.10;;;64.83;;
11665;SDS011;5889;51.350;6.708;2022-09-11T07:16:45;246.37;;;60.83;;
11665;SDS011;5889;51.350;6.708;2022-09-11T07:19:15;230.97;;;64.67;;
11665;SDS011;5889;51.350;6.708;2022-09-11T07:21:43;240.53;;;64.30;;
11665;SDS011;5889;51.350;6.708;2022-09-11T07:24:09;209.33;;;59.33;;
11665;SDS011;5889;51.350;6.708;2022-09-11T07:26:36;178.80;;;54.53;;
11665;SDS011;5889;51.350;6.708;2022-09-11T07:29:03;160.90;;;52.30;;
11665;SDS011;5889;51.350;6.708;2022-09-11T07:31:31;159.43;;;49.53;;
11665;SDS011;5889;51.350;6.708;2022-09-11T07:33:58;158.80;;;49.77;;
11665;SDS011;5889;51.350;6.708;2022-09-11T07:36:27;143.47;;;47.33;;
11665;SDS011;5889;51.350;6.708;2022-09-11T07:38:56;131.90;;;44.80;;
11665;SDS011;5889;51.350;6.708;2022-09-11T07:41:23;117.57;;;43.57;;
11665;SDS011;5889;51.350;6.708;2022-09-11T07:43:52;140.33;;;45.37;;
11665;SDS011;5889;51.350;6.708;2022-09-11T07:46:20;129.47;;;47.53;;
11665;SDS011;5889;51.350;6.708;2022-09-11T07:48:47;140.30;;;47.20;;
11665;SDS011;5889;51.350;6.708;2022-09-11T07:51:14;124.03;;;44.33;;
11665;SDS011;5889;51.350;6.708;2022-09-11T07:53:45;133.70;;;47.30;;
11665;SDS011;5889;51.350;6.708;2022-09-11T07:56:17;139.73;;;50.47;;
11665;SDS011;5889;51.350;6.708;2022-09-11T07:58:45;142.33;;;47.40;;
11665;SDS011;5889;51.350;6.708;2022-09-11T08:01:13;133.53;;;46.67;;
11665;SDS011;5889;51.350;6.708;2022-09-11T08:03:41;133.93;;;46.53;;
11665;SDS011;5889;51.350;6.708;2022-09-11T08:06:09;126.70;;;47.63;;
11665;SDS011;5889;51.350;6.708;2022-09-11T08:08:38;123.77;;;44.53;;
11665;SDS011;5889;51.350;6.708;2022-09-11T08:11:07;106.53;;;42.10;;
11665;SDS011;5889;51.350;6.708;2022-09-11T08:13:35;114.07;;;43.10;;
11665;SDS011;5889;51.350;6.708;2022-09-11T08:16:03;118.97;;;44.60;;
11665;SDS011;5889;51.350;6.708;2022-09-11T08:18:30;112.03;;;43.53;;
11665;SDS011;5889;51.350;6.708;2022-09-11T08:20:59;107.17;;;41.77;;
11665;SDS011;5889;51.350;6.708;2022-09-11T08:23:28;115.43;;;43.57;;
11665;SDS011;5889;51.350;6.708;2022-09-11T08:26:01;119.07;;;44.20;;
11665;SDS011;5889;51.350;6.708;2022-09-11T08:28:30;122.73;;;46.77;;
11665;SDS011;5889;51.350;6.708;2022-09-11T08:30:59;100.90;;;40.33;;
11665;SDS011;5889;51.350;6.708;2022-09-11T08:33:26;97.57;;;39.57;;
11665;SDS011;5889;51.350;6.708;2022-09-11T08:35:53;105.57;;;41.33;;
11665;SDS011;5889;51.350;6.708;2022-09-11T08:38:21;91.70;;;39.47;;
11665;SDS011;5889;51.350;6.708;2022-09-11T08:40:48;85.97;;;37.27;;
11665;SDS011;5889;51.350;6.708;2022-09-11T08:43:17;87.87;;;38.43;;
11665;SDS011;5889;51.350;6.708;2022-09-11T08:45:51;74.10;;;36.43;;
11665;SDS011;5889;51.350;6.708;2022-09-11T08:48:26;80.57;;;35.87;;
11665;SDS011;5889;51.350;6.708;2022-09-11T08:50:56;78.60;;;37.03;;
11665;SDS011;5889;51.350;6.708;2022-09-11T08:53:23;74.53;;;34.90;;
11665;SDS011;5889;51.350;6.708;2022-09-11T08:55:53;82.27;;;38.20;;
11665;SDS011;5889;51.350;6.708;2022-09-11T08:58:28;94.57;;;39.83;;
11665;SDS011;5889;51.350;6.708;2022-09-11T09:01:07;91.87;;;39.23;;
11665;SDS011;5889;51.350;6.708;2022-09-11T09:03:45;93.80;;;40.20;;
11665;SDS011;5889;51.350;6.708;2022-09-11T09:06:32;84.07;;;36.83;;
11665;SDS011;5889;51.350;6.708;2022-09-11T09:09:10;76.87;;;33.97;;
11665;SDS011;5889;51.350;6.708;2022-09-11T09:11:45;76.60;;;34.77;;
11665;SDS011;5889;51.350;6.708;2022-09-11T09:14:27;84.47;;;39.37;;
11665;SDS011;5889;51.350;6.708;2022-09-11T09:17:06;101.73;;;47.87;;
11665;SDS011;5889;51.350;6.708;2022-09-11T09:19:38;91.00;;;43.67;;
11665;SDS011;5889;51.350;6.708;2022-09-11T09:22:11;79.07;;;37.80;;
11665;SDS011;5889;51.350;6.708;2022-09-11T09:24:44;83.53;;;40.87;;
11665;SDS011;5889;51.350;6.708;2022-09-11T09:27:14;75.63;;;37.27;;
11665;SDS011;5889;51.350;6.708;2022-09-11T09:29:44;76.53;;;37.93;;
11665;SDS011;5889;51.350;6.708;2022-09-11T09:32:19;65.70;;;38.10;;
11665;SDS011;5889;51.350;6.708;2022-09-11T09:34:51;67.80;;;36.23;;
11665;SDS011;5889;51.350;6.708;2022-09-11T09:37:22;68.00;;;37.30;;
11665;SDS011;5889;51.350;6.708;2022-09-11T09:39:51;66.30;;;41.10;;
11665;SDS011;5889;51.350;6.708;2022-09-11T09:42:21;73.80;;;44.53;;
11665;SDS011;5889;51.350;6.708;2022-09-11T09:45:01;76.13;;;41.13;;
11665;SDS011;5889;51.350;6.708;2022-09-11T09:47:44;72.57;;;40.23;;
11665;SDS011;5889;51.350;6.708;2022-09-11T09:50:15;79.97;;;42.87;;
11665;SDS011;5889;51.350;6.708;2022-09-11T09:52:44;82.40;;;46.13;;
11665;SDS011;5889;51.350;6.708;2022-09-11T09:55:14;78.60;;;43.70;;
11665;SDS011;5889;51.350;6.708;2022-09-11T09:57:41;73.93;;;41.23;;
11665;SDS011;5889;51.350;6.708;2022-09-11T10:00:12;72.10;;;38.97;;
11665;SDS011;5889;51.350;6.708;2022-09-11T10:02:42;69.70;;;38.67;;
11665;SDS011;5889;51.350;6.708;2022-09-11T10:05:17;68.27;;;40.20;;
11665;SDS011;5889;51.350;6.708;2022-09-11T10:07:45;76.13;;;42.30;;
11665;SDS011;5889;51.350;6.708;2022-09-11T10:10:20;76.43;;;42.23;;
11665;SDS011;5889;51.350;6.708;2022-09-11T10:12:52;72.30;;;40.77;;
11665;SDS011;5889;51.350;6.708;2022-09-11T10:15:20;69.10;;;39.90;;
11665;SDS011;5889;51.350;6.708;2022-09-11T10:17:52;62.37;;;36.83;;
11665;SDS011;5889;51.350;6.708;2022-09-11T10:20:23;61.07;;;35.67;;
11665;SDS011;5889;51.350;6.708;2022-09-11T10:22:55;66.70;;;39.00;;
11665;SDS011;5889;51.350;6.708;2022-09-11T10:25:49;71.87;;;41.63;;
11665;SDS011;5889;51.350;6.708;2022-09-11T10:28:17;74.20;;;41.10;;
11665;SDS011;5889;51.350;6.708;2022-09-11T10:30:54;75.43;;;41.83;;
11665;SDS011;5889;51.350;6.708;2022-09-11T10:33:25;75.77;;;44.33;;
11665;SDS011;5889;51.350;6.708;2022-09-11T10:35:54;77.03;;;45.57;;
11665;SDS011;5889;51.350;6.708;2022-09-11T10:38:22;67.07;;;37.03;;
11665;SDS011;5889;51.350;6.708;2022-09-11T10:40:57;63.57;;;38.07;;
11665;SDS011;5889;51.350;6.708;2022-09-11T10:43:35;57.57;;;35.60;;
11665;SDS011;5889;51.350;6.708;2022-09-11T10:46:20;59.33;;;35.33;;
11665;SDS011;5889;51.350;6.708;2022-09-11T10:48:53;61.40;;;37.53;;
11665;SDS011;5889;51.350;6.708;2022-09-11T10:51:22;61.78;;;36.78;;
11665;SDS011;5889;51.350;6.708;2022-09-11T10:53:57;63.03;;;37.93;;
11665;SDS011;5889;51.350;6.708;2022-09-11T10:56:29;63.90;;;37.57;;
11665;SDS011;5889;51.350;6.708;2022-09-11T10:59:09;59.27;;;36.53;;
11665;SDS011;5889;51.350;6.708;2022-09-11T11:01:42;55.03;;;35.43;;
11665;SDS011;5889;51.350;6.708;2022-09-11T11:04:10;55.03;;;33.10;;
11665;SDS011;5889;51.350;6.708;2022-09-11T11:06:42;59.63;;;36.13;;
11665;SDS011;5889;51.350;6.708;2022-09-11T11:09:21;59.40;;;36.17;;
11665;SDS011;5889;51.350;6.708;2022-09-11T11:12:03;60.70;;;38.47;;
11665;SDS011;5889;51.350;6.708;2022-09-11T11:14:58;57.42;;;38.13;;
11665;SDS011;5889;51.350;6.708;2022-09-11T11:17:42;55.92;;;35.60;;
11665;SDS011;5889;51.350;6.708;2022-09-11T11:20:19;54.65;;;36.05;;
11665;SDS011;5889;51.350;6.708;2022-09-11T11:23:02;47.60;;;30.65;;
11665;SDS011;5889;51.350;6.708;2022-09-11T11:25:45;42.65;;;27.08;;
11665;SDS011;5889;51.350;6.708;2022-09-11T11:28:23;42.63;;;28.88;;
11665;SDS011;5889;51.350;6.708;2022-09-11T11:31:02;39.53;;;26.77;;
11665;SDS011;5889;51.350;6.708;2022-09-11T11:33:46;42.42;;;28.42;;
11665;SDS011;5889;51.350;6.708;2022-09-11T11:36:37;42.80;;;27.17;;
11665;SDS011;5889;51.350;6.708;2022-09-11T11:39:07;36.65;;;22.67;;
11665;SDS011;5889;51.350;6.708;2022-09-11T11:41:44;35.42;;;22.33;;
11665;SDS011;5889;51.350;6.708;2022-09-11T11:44:14;33.45;;;21.13;;
11665;SDS011;5889;51.350;6.708;2022-09-11T11:46:49;35.17;;;21.30;;
11665;SDS011;5889;51.350;6.708;2022-09-11T11:49:21;31.02;;;20.45;;
11665;SDS011;5889;51.350;6.708;2022-09-11T11:51:55;29.90;;;19.50;;
11665;SDS011;5889;51.350;6.708;2022-09-11T11:54:29;34.90;;;22.05;;
11665;SDS011;5889;51.350;6.708;2022-09-11T11:57:04;30.52;;;19.33;;
11665;SDS011;5889;51.350;6.708;2022-09-11T11:59:37;29.65;;;18.85;;
11665;SDS011;5889;51.350;6.708;2022-09-11T12:02:12;28.05;;;19.20;;
11665;SDS011;5889;51.350;6.708;2022-09-11T12:04:46;24.52;;;17.77;;
11665;SDS011;5889;51.350;6.708;2022-09-11T12:07:20;28.20;;;17.52;;
11665;SDS011;5889;51.350;6.708;2022-09-11T12:09:54;25.33;;;18.02;;
11665;SDS011;5889;51.350;6.708;2022-09-11T12:12:23;22.77;;;16.33;;
11665;SDS011;5889;51.350;6.708;2022-09-11T12:14:54;21.20;;;15.68;;
11665;SDS011;5889;51.350;6.708;2022-09-11T12:17:23;23.58;;;16.08;;
11665;SDS011;5889;51.350;6.708;2022-09-11T12:22:42;24.17;;;16.60;;
11665;SDS011;5889;51.350;6.708;2022-09-11T12:28:19;25.77;;;17.55;;
11665;SDS011;5889;51.350;6.708;2022-09-11T12:30:54;26.17;;;17.58;;
11665;SDS011;5889;51.350;6.708;2022-09-11T12:36:32;27.98;;;19.10;;
11665;SDS011;5889;51.350;6.708;2022-09-11T12:39:21;29.75;;;18.70;;
11665;SDS011;5889;51.350;6.708;2022-09-11T12:44:56;25.50;;;17.75;;
11665;SDS011;5889;51.350;6.708;2022-09-11T12:47:24;26.38;;;18.15;;
11665;SDS011;5889;51.350;6.708;2022-09-11T12:49:53;25.42;;;17.27;;
11665;SDS011;5889;51.350;6.708;2022-09-11T12:52:26;27.95;;;18.33;;
11665;SDS011;5889;51.350;6.708;2022-09-11T12:55:05;21.48;;;15.07;;
11665;SDS011;5889;51.350;6.708;2022-09-11T12:57:47;19.05;;;14.40;;
11665;SDS011;5889;51.350;6.708;2022-09-11T13:00:20;20.83;;;13.95;;
11665;SDS011;5889;51.350;6.708;2022-09-11T13:02:50;28.55;;;19.02;;
11665;SDS011;5889;51.350;6.708;2022-09-11T13:05:19;26.58;;;18.10;;
11665;SDS011;5889;51.350;6.708;2022-09-11T13:07:51;24.55;;;17.67;;
11665;SDS011;5889;51.350;6.708;2022-09-11T13:10:25;25.90;;;20.35;;
11665;SDS011;5889;51.350;6.708;2022-09-11T13:12:57;28.15;;;19.50;;
11665;SDS011;5889;51.350;6.708;2022-09-11T13:15:30;25.77;;;18.35;;
11665;SDS011;5889;51.350;6.708;2022-09-11T13:18:14;21.67;;;16.88;;
11665;SDS011;5889;51.350;6.708;2022-09-11T13:20:57;23.55;;;16.45;;
11665;SDS011;5889;51.350;6.708;2022-09-11T13:23:25;23.90;;;17.25;;
11665;SDS011;5889;51.350;6.708;2022-09-11T13:25:54;20.67;;;15.48;;
11665;SDS011;5889;51.350;6.708;2022-09-11T13:28:22;19.88;;;14.45;;
11665;SDS011;5889;51.350;6.708;2022-09-11T13:30:53;21.08;;;15.70;;
11665;SDS011;5889;51.350;6.708;2022-09-11T13:33:22;21.40;;;14.63;;
11665;SDS011;5889;51.350;6.708;2022-09-11T13:35:51;18.20;;;14.40;;
11665;SDS011;5889;51.350;6.708;2022-09-11T13:38:20;21.70;;;14.63;;
11665;SDS011;5889;51.350;6.708;2022-09-11T13:40:51;21.17;;;14.55;;
11665;SDS011;5889;51.350;6.708;2022-09-11T13:43:22;17.00;;;12.45;;
11665;SDS011;5889;51.350;6.708;2022-09-11T13:48:47;17.25;;;12.73;;
11665;SDS011;5889;51.350;6.708;2022-09-11T13:51:16;18.52;;;13.50;;
11665;SDS011;5889;51.350;6.708;2022-09-11T13:53:46;20.77;;;14.77;;
11665;SDS011;5889;51.350;6.708;2022-09-11T13:56:35;17.02;;;13.52;;
11665;SDS011;5889;51.350;6.708;2022-09-11T13:59:23;21.17;;;15.18;;
11665;SDS011;5889;51.350;6.708;2022-09-11T14:01:51;20.38;;;14.45;;
11665;SDS011;5889;51.350;6.708;2022-09-11T14:04:20;19.45;;;15.02;;
11665;SDS011;5889;51.350;6.708;2022-09-11T14:06:47;21.30;;;14.30;;
11665;SDS011;5889;51.350;6.708;2022-09-11T14:09:14;17.02;;;13.45;;
11665;SDS011;5889;51.350;6.708;2022-09-11T14:11:45;18.55;;;11.93;;
11665;SDS011;5889;51.350;6.708;2022-09-11T14:14:16;19.00;;;12.23;;
11665;SDS011;5889;51.350;6.708;2022-09-11T14:16:49;19.80;;;12.00;;
11665;SDS011;5889;51.350;6.708;2022-09-11T14:19:19;15.10;;;10.82;;
11665;SDS011;5889;51.350;6.708;2022-09-11T14:21:48;16.17;;;11.75;;
11665;SDS011;5889;51.350;6.708;2022-09-11T14:24:26;17.63;;;12.65;;
11665;SDS011;5889;51.350;6.708;2022-09-11T14:26:59;19.58;;;12.25;;
11665;SDS011;5889;51.350;6.708;2022-09-11T14:29:28;15.48;;;11.45;;
11665;SDS011;5889;51.350;6.708;2022-09-11T14:34:53;12.88;;;10.35;;
11665;SDS011;5889;51.350;6.708;2022-09-11T14:37:20;15.63;;;11.02;;
11665;SDS011;5889;51.350;6.708;2022-09-11T14:39:47;14.30;;;11.38;;
11665;SDS011;5889;51.350;6.708;2022-09-11T14:42:22;14.32;;;11.65;;
11665;SDS011;5889;51.350;6.708;2022-09-11T14:44:51;13.23;;;10.68;;
11665;SDS011;5889;51.350;6.708;2022-09-11T14:47:19;15.93;;;11.48;;
11665;SDS011;5889;51.350;6.708;2022-09-11T14:49:49;14.18;;;10.75;;
11665;SDS011;5889;51.350;6.708;2022-09-11T14:52:18;15.68;;;10.57;;
11665;SDS011;5889;51.350;6.708;2022-09-11T14:54:46;15.93;;;10.90;;
11665;SDS011;5889;51.350;6.708;2022-09-11T14:57:14;15.18;;;10.70;;
11665;SDS011;5889;51.350;6.708;2022-09-11T14:59:43;14.30;;;10.80;;
11665;SDS011;5889;51.350;6.708;2022-09-11T15:02:10;13.82;;;10.75;;
11665;SDS011;5889;51.350;6.708;2022-09-11T15:04:38;15.88;;;10.98;;
11665;SDS011;5889;51.350;6.708;2022-09-11T15:07:05;15.80;;;11.27;;